Terminal Aerodrome Forecast
Issued by NWS

Home | Current Version | Previous Version | Graphics & Text | Print | Product List | Glossary On
Versions: 1 2 3 4 5 6 7 8 9 10 11 12 13 14 15 16 17 18 19
900
FTUS43 KICT 221520 AAB
TAFCNU
TAF AMD
KCNU 221520Z 2215/2312 20007KT P6SM VCSH SCT035 OVC060
     FM221600 01017G22KT P6SM OVC012
     FM221800 02017G22KT P6SM BKN018
     FM222000 02013KT P6SM SCT025=

USA.gov is the U.S. government's official web portal to all federal, state and local government web resources and services.